sensor_id;sensor_type;location;lat;lon;timestamp;P1;durP1;ratioP1;P2;durP2;ratioP2
40256;SDS011;25977;45.462;9.210;2023-04-03T00:01:16;8.20;;;5.38;;
40256;SDS011;25977;45.462;9.210;2023-04-03T00:03:42;9.63;;;5.63;;
40256;SDS011;25977;45.462;9.210;2023-04-03T00:06:08;7.90;;;4.63;;
40256;SDS011;25977;45.462;9.210;2023-04-03T00:08:36;5.25;;;4.70;;
40256;SDS011;25977;45.462;9.210;2023-04-03T00:11:02;7.30;;;5.13;;
40256;SDS011;25977;45.462;9.210;2023-04-03T00:13:29;6.65;;;4.10;;
40256;SDS011;25977;45.462;9.210;2023-04-03T00:15:55;5.97;;;5.13;;
40256;SDS011;25977;45.462;9.210;2023-04-03T00:18:21;7.80;;;4.82;;
40256;SDS011;25977;45.462;9.210;2023-04-03T00:20:47;5.65;;;4.80;;
40256;SDS011;25977;45.462;9.210;2023-04-03T00:23:13;5.63;;;5.03;;
40256;SDS011;25977;45.462;9.210;2023-04-03T00:25:39;6.63;;;5.50;;
40256;SDS011;25977;45.462;9.210;2023-04-03T00:28:05;5.15;;;4.65;;
40256;SDS011;25977;45.462;9.210;2023-04-03T00:30:31;5.43;;;4.95;;
40256;SDS011;25977;45.462;9.210;2023-04-03T00:32:57;5.80;;;5.28;;
40256;SDS011;25977;45.462;9.210;2023-04-03T00:35:23;13.77;;;4.85;;
40256;SDS011;25977;45.462;9.210;2023-04-03T00:37:51;8.48;;;5.50;;
40256;SDS011;25977;45.462;9.210;2023-04-03T00:40:18;8.27;;;5.85;;
40256;SDS011;25977;45.462;9.210;2023-04-03T00:42:45;6.13;;;5.32;;
40256;SDS011;25977;45.462;9.210;2023-04-03T00:45:30;6.82;;;4.47;;
40256;SDS011;25977;45.462;9.210;2023-04-03T00:47:58;7.13;;;5.38;;
40256;SDS011;25977;45.462;9.210;2023-04-03T00:50:27;7.03;;;5.25;;
40256;SDS011;25977;45.462;9.210;2023-04-03T00:52:54;8.23;;;4.43;;
40256;SDS011;25977;45.462;9.210;2023-04-03T00:55:21;6.43;;;5.65;;
40256;SDS011;25977;45.462;9.210;2023-04-03T00:57:47;5.85;;;5.30;;
40256;SDS011;25977;45.462;9.210;2023-04-03T01:00:14;6.38;;;5.07;;
40256;SDS011;25977;45.462;9.210;2023-04-03T01:02:43;6.63;;;5.15;;
40256;SDS011;25977;45.462;9.210;2023-04-03T01:05:11;6.13;;;5.47;;
40256;SDS011;25977;45.462;9.210;2023-04-03T01:07:39;9.27;;;5.40;;
40256;SDS011;25977;45.462;9.210;2023-04-03T01:10:07;9.20;;;5.18;;
40256;SDS011;25977;45.462;9.210;2023-04-03T01:12:35;8.18;;;4.95;;
40256;SDS011;25977;45.462;9.210;2023-04-03T01:15:10;9.70;;;5.68;;
40256;SDS011;25977;45.462;9.210;2023-04-03T01:22:59;7.72;;;5.00;;
40256;SDS011;25977;45.462;9.210;2023-04-03T01:25:35;6.28;;;5.60;;
40256;SDS011;25977;45.462;9.210;2023-04-03T01:28:04;10.52;;;5.22;;
40256;SDS011;25977;45.462;9.210;2023-04-03T01:30:33;12.52;;;6.00;;
40256;SDS011;25977;45.462;9.210;2023-04-03T01:33:02;7.75;;;5.93;;
40256;SDS011;25977;45.462;9.210;2023-04-03T01:35:28;7.15;;;5.05;;
40256;SDS011;25977;45.462;9.210;2023-04-03T01:37:54;6.03;;;5.13;;
40256;SDS011;25977;45.462;9.210;2023-04-03T01:40:19;12.98;;;4.85;;
40256;SDS011;25977;45.462;9.210;2023-04-03T01:42:45;6.78;;;6.07;;
40256;SDS011;25977;45.462;9.210;2023-04-03T01:45:11;8.85;;;5.18;;
40256;SDS011;25977;45.462;9.210;2023-04-03T01:47:37;5.35;;;4.72;;
40256;SDS011;25977;45.462;9.210;2023-04-03T01:50:04;6.82;;;4.72;;
40256;SDS011;25977;45.462;9.210;2023-04-03T01:52:32;6.93;;;4.75;;
40256;SDS011;25977;45.462;9.210;2023-04-03T01:54:57;7.07;;;5.03;;
40256;SDS011;25977;45.462;9.210;2023-04-03T01:57:23;7.22;;;4.78;;
40256;SDS011;25977;45.462;9.210;2023-04-03T01:59:49;5.05;;;4.50;;
40256;SDS011;25977;45.462;9.210;2023-04-03T02:02:16;9.63;;;4.90;;
40256;SDS011;25977;45.462;9.210;2023-04-03T02:04:42;5.75;;;5.15;;
40256;SDS011;25977;45.462;9.210;2023-04-03T02:07:07;11.38;;;5.10;;
40256;SDS011;25977;45.462;9.210;2023-04-03T02:09:33;7.57;;;5.03;;
40256;SDS011;25977;45.462;9.210;2023-04-03T02:11:59;5.35;;;4.85;;
40256;SDS011;25977;45.462;9.210;2023-04-03T02:14:25;6.55;;;5.25;;
40256;SDS011;25977;45.462;9.210;2023-04-03T02:16:52;7.50;;;4.55;;
40256;SDS011;25977;45.462;9.210;2023-04-03T02:19:21;5.82;;;4.97;;
40256;SDS011;25977;45.462;9.210;2023-04-03T02:21:47;6.25;;;4.93;;
40256;SDS011;25977;45.462;9.210;2023-04-03T02:24:14;5.65;;;5.03;;
40256;SDS011;25977;45.462;9.210;2023-04-03T02:26:39;6.47;;;4.93;;
40256;SDS011;25977;45.462;9.210;2023-04-03T02:29:05;6.38;;;4.85;;
40256;SDS011;25977;45.462;9.210;2023-04-03T02:31:31;7.45;;;4.88;;
40256;SDS011;25977;45.462;9.210;2023-04-03T02:33:58;6.22;;;4.35;;
40256;SDS011;25977;45.462;9.210;2023-04-03T02:36:25;5.25;;;4.75;;
40256;SDS011;25977;45.462;9.210;2023-04-03T02:38:55;5.45;;;4.95;;
40256;SDS011;25977;45.462;9.210;2023-04-03T02:41:21;6.50;;;4.22;;
40256;SDS011;25977;45.462;9.210;2023-04-03T02:43:48;8.23;;;4.78;;
40256;SDS011;25977;45.462;9.210;2023-04-03T02:46:15;9.38;;;4.82;;
40256;SDS011;25977;45.462;9.210;2023-04-03T02:48:41;6.70;;;5.05;;
40256;SDS011;25977;45.462;9.210;2023-04-03T02:51:07;9.93;;;5.13;;
40256;SDS011;25977;45.462;9.210;2023-04-03T02:53:32;5.65;;;5.15;;
40256;SDS011;25977;45.462;9.210;2023-04-03T02:56:04;9.02;;;4.80;;
40256;SDS011;25977;45.462;9.210;2023-04-03T02:58:30;4.93;;;4.32;;
40256;SDS011;25977;45.462;9.210;2023-04-03T03:00:58;7.95;;;4.55;;
40256;SDS011;25977;45.462;9.210;2023-04-03T03:03:24;7.63;;;5.13;;
40256;SDS011;25977;45.462;9.210;2023-04-03T03:05:49;4.88;;;4.22;;
40256;SDS011;25977;45.462;9.210;2023-04-03T03:08:15;6.20;;;4.57;;
40256;SDS011;25977;45.462;9.210;2023-04-03T03:10:41;8.25;;;4.60;;
40256;SDS011;25977;45.462;9.210;2023-04-03T03:13:06;6.80;;;4.72;;
40256;SDS011;25977;45.462;9.210;2023-04-03T03:15:32;10.15;;;5.10;;
40256;SDS011;25977;45.462;9.210;2023-04-03T03:17:58;6.50;;;4.68;;
40256;SDS011;25977;45.462;9.210;2023-04-03T03:20:24;4.65;;;4.25;;
40256;SDS011;25977;45.462;9.210;2023-04-03T03:22:50;5.97;;;4.78;;
40256;SDS011;25977;45.462;9.210;2023-04-03T03:25:16;7.60;;;4.65;;
40256;SDS011;25977;45.462;9.210;2023-04-03T03:27:41;7.97;;;5.07;;
40256;SDS011;25977;45.462;9.210;2023-04-03T03:30:07;7.82;;;4.38;;
40256;SDS011;25977;45.462;9.210;2023-04-03T03:32:33;4.68;;;4.28;;
40256;SDS011;25977;45.462;9.210;2023-04-03T03:35:00;5.68;;;4.35;;
40256;SDS011;25977;45.462;9.210;2023-04-03T03:37:26;5.20;;;4.57;;
40256;SDS011;25977;45.462;9.210;2023-04-03T03:39:52;5.55;;;4.93;;
40256;SDS011;25977;45.462;9.210;2023-04-03T03:42:18;5.05;;;4.57;;
40256;SDS011;25977;45.462;9.210;2023-04-03T03:44:44;7.63;;;3.80;;
40256;SDS011;25977;45.462;9.210;2023-04-03T03:47:10;6.20;;;4.90;;
40256;SDS011;25977;45.462;9.210;2023-04-03T03:49:36;7.15;;;4.97;;
40256;SDS011;25977;45.462;9.210;2023-04-03T03:52:02;5.63;;;4.72;;
40256;SDS011;25977;45.462;9.210;2023-04-03T03:54:28;6.60;;;4.75;;
40256;SDS011;25977;45.462;9.210;2023-04-03T03:56:54;6.70;;;5.10;;
40256;SDS011;25977;45.462;9.210;2023-04-03T03:59:22;8.55;;;4.63;;
40256;SDS011;25977;45.462;9.210;2023-04-03T04:01:48;9.90;;;4.68;;
40256;SDS011;25977;45.462;9.210;2023-04-03T04:04:13;5.88;;;5.28;;
40256;SDS011;25977;45.462;9.210;2023-04-03T04:06:39;13.25;;;5.90;;
40256;SDS011;25977;45.462;9.210;2023-04-03T04:09:08;6.00;;;4.90;;
40256;SDS011;25977;45.462;9.210;2023-04-03T04:11:34;13.27;;;4.97;;
40256;SDS011;25977;45.462;9.210;2023-04-03T04:14:01;10.82;;;5.60;;
40256;SDS011;25977;45.462;9.210;2023-04-03T04:16:28;6.35;;;4.82;;
40256;SDS011;25977;45.462;9.210;2023-04-03T04:18:56;9.15;;;5.00;;
40256;SDS011;25977;45.462;9.210;2023-04-03T04:21:23;10.35;;;4.30;;
40256;SDS011;25977;45.462;9.210;2023-04-03T04:23:51;9.23;;;5.35;;
40256;SDS011;25977;45.462;9.210;2023-04-03T04:26:17;7.28;;;5.20;;
40256;SDS011;25977;45.462;9.210;2023-04-03T04:28:43;5.78;;;5.07;;
40256;SDS011;25977;45.462;9.210;2023-04-03T04:31:09;7.45;;;5.13;;
40256;SDS011;25977;45.462;9.210;2023-04-03T04:33:35;7.47;;;5.70;;
40256;SDS011;25977;45.462;9.210;2023-04-03T04:36:03;7.90;;;5.63;;
40256;SDS011;25977;45.462;9.210;2023-04-03T04:38:29;13.35;;;5.80;;
40256;SDS011;25977;45.462;9.210;2023-04-03T04:40:55;9.35;;;5.30;;
40256;SDS011;25977;45.462;9.210;2023-04-03T04:43:21;7.55;;;5.63;;
40256;SDS011;25977;45.462;9.210;2023-04-03T04:46:00;10.68;;;6.15;;
40256;SDS011;25977;45.462;9.210;2023-04-03T04:51:00;7.95;;;4.85;;
40256;SDS011;25977;45.462;9.210;2023-04-03T04:53:27;6.30;;;5.45;;
40256;SDS011;25977;45.462;9.210;2023-04-03T04:55:53;9.85;;;5.10;;
40256;SDS011;25977;45.462;9.210;2023-04-03T04:58:19;9.93;;;5.80;;
40256;SDS011;25977;45.462;9.210;2023-04-03T05:00:45;7.65;;;5.53;;
40256;SDS011;25977;45.462;9.210;2023-04-03T05:03:11;6.43;;;5.18;;
40256;SDS011;25977;45.462;9.210;2023-04-03T05:05:37;10.05;;;6.10;;
40256;SDS011;25977;45.462;9.210;2023-04-03T05:08:03;12.48;;;5.30;;
40256;SDS011;25977;45.462;9.210;2023-04-03T05:10:29;7.85;;;5.85;;
40256;SDS011;25977;45.462;9.210;2023-04-03T05:12:56;9.60;;;5.85;;
40256;SDS011;25977;45.462;9.210;2023-04-03T05:15:22;6.88;;;6.00;;
40256;SDS011;25977;45.462;9.210;2023-04-03T05:17:48;8.60;;;5.60;;
40256;SDS011;25977;45.462;9.210;2023-04-03T05:20:14;7.57;;;6.25;;
40256;SDS011;25977;45.462;9.210;2023-04-03T05:22:41;8.05;;;5.30;;
40256;SDS011;25977;45.462;9.210;2023-04-03T05:25:08;7.35;;;6.10;;
40256;SDS011;25977;45.462;9.210;2023-04-03T05:27:34;14.55;;;6.50;;
40256;SDS011;25977;45.462;9.210;2023-04-03T05:30:00;6.47;;;5.47;;
40256;SDS011;25977;45.462;9.210;2023-04-03T05:32:27;15.38;;;6.45;;
40256;SDS011;25977;45.462;9.210;2023-04-03T05:35:05;16.38;;;7.00;;
40256;SDS011;25977;45.462;9.210;2023-04-03T05:37:32;12.30;;;6.05;;
40256;SDS011;25977;45.462;9.210;2023-04-03T05:39:58;9.57;;;5.82;;
40256;SDS011;25977;45.462;9.210;2023-04-03T05:42:24;7.82;;;6.80;;
40256;SDS011;25977;45.462;9.210;2023-04-03T05:44:50;13.07;;;6.40;;
40256;SDS011;25977;45.462;9.210;2023-04-03T05:47:16;13.15;;;6.10;;
40256;SDS011;25977;45.462;9.210;2023-04-03T05:49:42;10.45;;;6.32;;
40256;SDS011;25977;45.462;9.210;2023-04-03T05:54:47;17.67;;;7.40;;
40256;SDS011;25977;45.462;9.210;2023-04-03T05:57:18;11.65;;;6.88;;
40256;SDS011;25977;45.462;9.210;2023-04-03T05:59:45;11.85;;;7.07;;
40256;SDS011;25977;45.462;9.210;2023-04-03T06:02:13;15.20;;;6.88;;
40256;SDS011;25977;45.462;9.210;2023-04-03T06:04:45;17.40;;;6.55;;
40256;SDS011;25977;45.462;9.210;2023-04-03T06:07:13;18.15;;;7.13;;
40256;SDS011;25977;45.462;9.210;2023-04-03T06:09:41;16.90;;;6.55;;
40256;SDS011;25977;45.462;9.210;2023-04-03T06:12:08;10.85;;;6.82;;
40256;SDS011;25977;45.462;9.210;2023-04-03T06:14:34;8.93;;;6.88;;
40256;SDS011;25977;45.462;9.210;2023-04-03T06:17:00;12.40;;;6.18;;
40256;SDS011;25977;45.462;9.210;2023-04-03T06:19:26;10.45;;;6.68;;
40256;SDS011;25977;45.462;9.210;2023-04-03T06:21:55;13.38;;;7.68;;
40256;SDS011;25977;45.462;9.210;2023-04-03T06:24:23;12.25;;;6.38;;
40256;SDS011;25977;45.462;9.210;2023-04-03T06:26:50;7.20;;;5.95;;
40256;SDS011;25977;45.462;9.210;2023-04-03T06:29:17;16.38;;;7.30;;
40256;SDS011;25977;45.462;9.210;2023-04-03T06:31:46;5.55;;;4.88;;
40256;SDS011;25977;45.462;9.210;2023-04-03T06:34:13;7.38;;;5.20;;
40256;SDS011;25977;45.462;9.210;2023-04-03T06:36:38;4.90;;;4.00;;
40256;SDS011;25977;45.462;9.210;2023-04-03T06:39:04;5.35;;;3.63;;
40256;SDS011;25977;45.462;9.210;2023-04-03T06:41:30;6.60;;;3.80;;
40256;SDS011;25977;45.462;9.210;2023-04-03T06:43:56;4.82;;;3.75;;
40256;SDS011;25977;45.462;9.210;2023-04-03T06:46:23;10.95;;;3.65;;
40256;SDS011;25977;45.462;9.210;2023-04-03T06:48:50;12.10;;;4.30;;
40256;SDS011;25977;45.462;9.210;2023-04-03T06:51:23;12.63;;;5.65;;
40256;SDS011;25977;45.462;9.210;2023-04-03T06:53:49;20.00;;;4.85;;
40256;SDS011;25977;45.462;9.210;2023-04-03T06:56:16;5.55;;;3.78;;
40256;SDS011;25977;45.462;9.210;2023-04-03T06:58:43;4.38;;;3.85;;
40256;SDS011;25977;45.462;9.210;2023-04-03T07:01:10;4.85;;;4.00;;
40256;SDS011;25977;45.462;9.210;2023-04-03T07:03:37;6.72;;;3.63;;
40256;SDS011;25977;45.462;9.210;2023-04-03T07:06:04;3.55;;;3.35;;
40256;SDS011;25977;45.462;9.210;2023-04-03T07:08:31;6.32;;;3.45;;
40256;SDS011;25977;45.462;9.210;2023-04-03T07:10:56;3.65;;;3.35;;
40256;SDS011;25977;45.462;9.210;2023-04-03T07:13:22;7.07;;;3.75;;
40256;SDS011;25977;45.462;9.210;2023-04-03T07:15:48;4.60;;;3.67;;
40256;SDS011;25977;45.462;9.210;2023-04-03T07:18:14;4.75;;;3.70;;
40256;SDS011;25977;45.462;9.210;2023-04-03T07:20:39;4.53;;;3.40;;
40256;SDS011;25977;45.462;9.210;2023-04-03T07:23:05;4.72;;;4.00;;
40256;SDS011;25977;45.462;9.210;2023-04-03T07:25:31;4.65;;;4.28;;
40256;SDS011;25977;45.462;9.210;2023-04-03T07:27:57;10.02;;;3.60;;
40256;SDS011;25977;45.462;9.210;2023-04-03T07:30:23;7.47;;;4.22;;
40256;SDS011;25977;45.462;9.210;2023-04-03T07:32:48;3.30;;;3.03;;
40256;SDS011;25977;45.462;9.210;2023-04-03T07:35:14;3.83;;;3.53;;
40256;SDS011;25977;45.462;9.210;2023-04-03T07:37:41;6.00;;;3.92;;
40256;SDS011;25977;45.462;9.210;2023-04-03T07:40:07;8.63;;;4.38;;
40256;SDS011;25977;45.462;9.210;2023-04-03T07:42:34;5.30;;;4.43;;
40256;SDS011;25977;45.462;9.210;2023-04-03T07:45:00;5.93;;;3.80;;
40256;SDS011;25977;45.462;9.210;2023-04-03T07:47:27;4.47;;;4.00;;
40256;SDS011;25977;45.462;9.210;2023-04-03T07:49:53;4.10;;;3.80;;
40256;SDS011;25977;45.462;9.210;2023-04-03T07:52:18;9.20;;;4.45;;
40256;SDS011;25977;45.462;9.210;2023-04-03T07:54:44;6.50;;;3.70;;
40256;SDS011;25977;45.462;9.210;2023-04-03T07:57:10;5.50;;;3.83;;
40256;SDS011;25977;45.462;9.210;2023-04-03T07:59:36;3.50;;;3.20;;
40256;SDS011;25977;45.462;9.210;2023-04-03T08:02:02;6.60;;;3.67;;
40256;SDS011;25977;45.462;9.210;2023-04-03T08:04:30;9.63;;;4.57;;
40256;SDS011;25977;45.462;9.210;2023-04-03T08:06:55;8.82;;;4.10;;
40256;SDS011;25977;45.462;9.210;2023-04-03T08:09:21;6.10;;;3.50;;
40256;SDS011;25977;45.462;9.210;2023-04-03T08:11:47;5.78;;;3.80;;
40256;SDS011;25977;45.462;9.210;2023-04-03T08:14:13;3.33;;;3.13;;
40256;SDS011;25977;45.462;9.210;2023-04-03T08:16:42;6.20;;;4.10;;
40256;SDS011;25977;45.462;9.210;2023-04-03T08:19:08;3.47;;;3.28;;
40256;SDS011;25977;45.462;9.210;2023-04-03T08:21:35;9.65;;;3.85;;
40256;SDS011;25977;45.462;9.210;2023-04-03T08:24:01;5.65;;;3.13;;
40256;SDS011;25977;45.462;9.210;2023-04-03T08:26:28;4.35;;;3.05;;
40256;SDS011;25977;45.462;9.210;2023-04-03T08:28:54;4.00;;;2.83;;
40256;SDS011;25977;45.462;9.210;2023-04-03T08:31:19;5.72;;;3.33;;
40256;SDS011;25977;45.462;9.210;2023-04-03T08:33:46;3.03;;;2.80;;
40256;SDS011;25977;45.462;9.210;2023-04-03T08:36:19;4.47;;;3.65;;
40256;SDS011;25977;45.462;9.210;2023-04-03T08:38:46;7.00;;;3.65;;
40256;SDS011;25977;45.462;9.210;2023-04-03T08:41:20;7.45;;;3.28;;
40256;SDS011;25977;45.462;9.210;2023-04-03T08:44:03;4.90;;;4.05;;
40256;SDS011;25977;45.462;9.210;2023-04-03T08:49:13;6.47;;;3.15;;
40256;SDS011;25977;45.462;9.210;2023-04-03T08:51:49;4.65;;;3.33;;
40256;SDS011;25977;45.462;9.210;2023-04-03T08:55:02;3.35;;;3.15;;
40256;SDS011;25977;45.462;9.210;2023-04-03T08:57:06;4.18;;;3.13;;
40256;SDS011;25977;45.462;9.210;2023-04-03T08:59:34;3.22;;;3.03;;
40256;SDS011;25977;45.462;9.210;2023-04-03T09:02:04;2.97;;;2.78;;
40256;SDS011;25977;45.462;9.210;2023-04-03T09:04:48;4.13;;;2.65;;
40256;SDS011;25977;45.462;9.210;2023-04-03T09:07:16;3.10;;;2.90;;
40256;SDS011;25977;45.462;9.210;2023-04-03T09:10:11;2.97;;;2.78;;
40256;SDS011;25977;45.462;9.210;2023-04-03T09:12:39;3.28;;;2.97;;
40256;SDS011;25977;45.462;9.210;2023-04-03T09:15:14;2.75;;;2.55;;
40256;SDS011;25977;45.462;9.210;2023-04-03T09:23:24;3.95;;;3.50;;
40256;SDS011;25977;45.462;9.210;2023-04-03T09:26:05;3.05;;;2.60;;
40256;SDS011;25977;45.462;9.210;2023-04-03T09:28:39;3.25;;;3.03;;
40256;SDS011;25977;45.462;9.210;2023-04-03T09:31:26;2.50;;;2.30;;
40256;SDS011;25977;45.462;9.210;2023-04-03T09:34:06;2.83;;;2.60;;
40256;SDS011;25977;45.462;9.210;2023-04-03T09:36:47;2.92;;;2.45;;
40256;SDS011;25977;45.462;9.210;2023-04-03T09:39:26;3.47;;;2.95;;
40256;SDS011;25977;45.462;9.210;2023-04-03T09:41:58;5.78;;;3.03;;
40256;SDS011;25977;45.462;9.210;2023-04-03T09:44:32;2.58;;;2.38;;
40256;SDS011;25977;45.462;9.210;2023-04-03T09:47:16;2.38;;;2.08;;
40256;SDS011;25977;45.462;9.210;2023-04-03T09:52:37;2.53;;;2.03;;
40256;SDS011;25977;45.462;9.210;2023-04-03T09:55:19;6.05;;;2.70;;
40256;SDS011;25977;45.462;9.210;2023-04-03T09:57:47;2.22;;;2.10;;
40256;SDS011;25977;45.462;9.210;2023-04-03T10:00:22;2.20;;;2.10;;
40256;SDS011;25977;45.462;9.210;2023-04-03T10:02:51;3.38;;;2.60;;
40256;SDS011;25977;45.462;9.210;2023-04-03T10:10:33;2.03;;;1.90;;
40256;SDS011;25977;45.462;9.210;2023-04-03T10:13:06;6.25;;;2.50;;
40256;SDS011;25977;45.462;9.210;2023-04-03T10:15:39;2.53;;;2.05;;
40256;SDS011;25977;45.462;9.210;2023-04-03T10:18:16;2.47;;;2.28;;
40256;SDS011;25977;45.462;9.210;2023-04-03T10:20:48;2.90;;;2.67;;
40256;SDS011;25977;45.462;9.210;2023-04-03T10:31:29;2.33;;;1.90;;
40256;SDS011;25977;45.462;9.210;2023-04-03T10:34:23;2.53;;;2.33;;
40256;SDS011;25977;45.462;9.210;2023-04-03T10:37:13;2.30;;;2.08;;
40256;SDS011;25977;45.462;9.210;2023-04-03T10:39:53;3.58;;;2.85;;
40256;SDS011;25977;45.462;9.210;2023-04-03T10:42:32;8.63;;;2.55;;
40256;SDS011;25977;45.462;9.210;2023-04-03T10:50:58;2.47;;;2.28;;
40256;SDS011;25977;45.462;9.210;2023-04-03T10:58:45;2.40;;;2.20;;
40256;SDS011;25977;45.462;9.210;2023-04-03T11:01:18;2.72;;;2.50;;
40256;SDS011;25977;45.462;9.210;2023-04-03T11:03:55;2.92;;;1.83;;
40256;SDS011;25977;45.462;9.210;2023-04-03T11:06:24;3.63;;;2.65;;
40256;SDS011;25977;45.462;9.210;2023-04-03T11:08:57;1.90;;;1.80;;
40256;SDS011;25977;45.462;9.210;2023-04-03T11:11:35;4.00;;;2.28;;
40256;SDS011;25977;45.462;9.210;2023-04-03T11:23:12;9.48;;;2.03;;
40256;SDS011;25977;45.462;9.210;2023-04-03T11:25:41;2.97;;;2.22;;
40256;SDS011;25977;45.462;9.210;2023-04-03T11:28:12;2.97;;;1.98;;
40256;SDS011;25977;45.462;9.210;2023-04-03T11:33:23;2.67;;;2.45;;
40256;SDS011;25977;45.462;9.210;2023-04-03T11:35:54;2.47;;;2.28;;
40256;SDS011;25977;45.462;9.210;2023-04-03T11:38:27;7.28;;;2.30;;
40256;SDS011;25977;45.462;9.210;2023-04-03T11:40:59;2.42;;;2.03;;
40256;SDS011;25977;45.462;9.210;2023-04-03T11:43:27;3.83;;;2.05;;
40256;SDS011;25977;45.462;9.210;2023-04-03T11:46:03;2.83;;;2.38;;
40256;SDS011;25977;45.462;9.210;2023-04-03T11:50:59;2.45;;;2.20;;
40256;SDS011;25977;45.462;9.210;2023-04-03T11:53:38;4.03;;;2.08;;
40256;SDS011;25977;45.462;9.210;2023-04-03T12:01:43;1.80;;;1.70;;
40256;SDS011;25977;45.462;9.210;2023-04-03T12:04:13;3.13;;;1.30;;
40256;SDS011;25977;45.462;9.210;2023-04-03T12:09:27;1.67;;;1.58;;
40256;SDS011;25977;45.462;9.210;2023-04-03T12:12:33;1.25;;;1.25;;
40256;SDS011;25977;45.462;9.210;2023-04-03T12:15:21;1.67;;;1.58;;
40256;SDS011;25977;45.462;9.210;2023-04-03T12:17:51;1.95;;;1.85;;
40256;SDS011;25977;45.462;9.210;2023-04-03T12:23:28;1.42;;;1.35;;
40256;SDS011;25977;45.462;9.210;2023-04-03T12:26:00;3.33;;;1.88;;
40256;SDS011;25977;45.462;9.210;2023-04-03T12:28:47;5.63;;;1.58;;
40256;SDS011;25977;45.462;9.210;2023-04-03T12:31:14;1.42;;;1.33;;
40256;SDS011;25977;45.462;9.210;2023-04-03T12:36:37;2.10;;;1.00;;
40256;SDS011;25977;45.462;9.210;2023-04-03T12:45:10;2.13;;;1.77;;
40256;SDS011;25977;45.462;9.210;2023-04-03T12:47:51;4.53;;;1.52;;
40256;SDS011;25977;45.462;9.210;2023-04-03T12:50:28;3.67;;;1.33;;
40256;SDS011;25977;45.462;9.210;2023-04-03T12:53:04;1.25;;;1.15;;
40256;SDS011;25977;45.462;9.210;2023-04-03T12:55:32;1.50;;;1.40;;
40256;SDS011;25977;45.462;9.210;2023-04-03T12:58:13;1.58;;;1.48;;
40256;SDS011;25977;45.462;9.210;2023-04-03T13:00:41;1.33;;;1.23;;
40256;SDS011;25977;45.462;9.210;2023-04-03T13:03:19;1.40;;;1.30;;
40256;SDS011;25977;45.462;9.210;2023-04-03T13:05:49;1.58;;;1.48;;
40256;SDS011;25977;45.462;9.210;2023-04-03T13:08:15;1.80;;;1.23;;
40256;SDS011;25977;45.462;9.210;2023-04-03T13:10:51;2.65;;;1.10;;
40256;SDS011;25977;45.462;9.210;2023-04-03T13:13:20;4.18;;;1.60;;
40256;SDS011;25977;45.462;9.210;2023-04-03T13:15:46;4.70;;;1.25;;
40256;SDS011;25977;45.462;9.210;2023-04-03T13:20:51;1.50;;;1.38;;
40256;SDS011;25977;45.462;9.210;2023-04-03T13:23:18;1.20;;;1.10;;
40256;SDS011;25977;45.462;9.210;2023-04-03T13:25:47;3.08;;;1.15;;
40256;SDS011;25977;45.462;9.210;2023-04-03T13:28:19;3.97;;;1.17;;
40256;SDS011;25977;45.462;9.210;2023-04-03T13:33:58;1.40;;;1.30;;
40256;SDS011;25977;45.462;9.210;2023-04-03T13:36:55;3.38;;;1.35;;
40256;SDS011;25977;45.462;9.210;2023-04-03T13:39:25;1.73;;;1.30;;
40256;SDS011;25977;45.462;9.210;2023-04-03T13:41:54;3.55;;;1.33;;
40256;SDS011;25977;45.462;9.210;2023-04-03T13:46:49;1.00;;;1.00;;
40256;SDS011;25977;45.462;9.210;2023-04-03T13:49:18;1.60;;;1.50;;
40256;SDS011;25977;45.462;9.210;2023-04-03T13:54:57;1.30;;;1.23;;
40256;SDS011;25977;45.462;9.210;2023-04-03T13:57:25;2.13;;;1.00;;
40256;SDS011;25977;45.462;9.210;2023-04-03T13:59:52;1.30;;;1.20;;
40256;SDS011;25977;45.462;9.210;2023-04-03T14:02:26;2.25;;;1.60;;
40256;SDS011;25977;45.462;9.210;2023-04-03T14:04:57;2.67;;;1.67;;
40256;SDS011;25977;45.462;9.210;2023-04-03T14:07:26;4.85;;;1.30;;
40256;SDS011;25977;45.462;9.210;2023-04-03T14:09:53;0.85;;;0.85;;
40256;SDS011;25977;45.462;9.210;2023-04-03T14:14:51;1.60;;;1.50;;
40256;SDS011;25977;45.462;9.210;2023-04-03T14:17:19;2.20;;;1.00;;
40256;SDS011;25977;45.462;9.210;2023-04-03T14:19:47;10.25;;;1.25;;
40256;SDS011;25977;45.462;9.210;2023-04-03T14:22:20;1.20;;;1.10;;
40256;SDS011;25977;45.462;9.210;2023-04-03T14:24:51;3.17;;;1.05;;
40256;SDS011;25977;45.462;9.210;2023-04-03T14:30:03;1.10;;;1.02;;
40256;SDS011;25977;45.462;9.210;2023-04-03T14:32:31;1.45;;;1.35;;
40256;SDS011;25977;45.462;9.210;2023-04-03T14:34:57;3.90;;;1.30;;
40256;SDS011;25977;45.462;9.210;2023-04-03T14:37:29;1.15;;;1.13;;
40256;SDS011;25977;45.462;9.210;2023-04-03T14:39:56;1.63;;;1.20;;
40256;SDS011;25977;45.462;9.210;2023-04-03T14:42:24;1.77;;;1.38;;
40256;SDS011;25977;45.462;9.210;2023-04-03T14:44:51;1.02;;;0.82;;
40256;SDS011;25977;45.462;9.210;2023-04-03T14:47:19;1.10;;;1.10;;
40256;SDS011;25977;45.462;9.210;2023-04-03T14:49:48;2.03;;;1.40;;
40256;SDS011;25977;45.462;9.210;2023-04-03T14:52:25;1.10;;;1.00;;
40256;SDS011;25977;45.462;9.210;2023-04-03T14:54:53;2.20;;;1.50;;
40256;SDS011;25977;45.462;9.210;2023-04-03T14:57:19;3.47;;;1.35;;
40256;SDS011;25977;45.462;9.210;2023-04-03T14:59:49;1.30;;;1.20;;
40256;SDS011;25977;45.462;9.210;2023-04-03T15:02:25;1.10;;;1.10;;
40256;SDS011;25977;45.462;9.210;2023-04-03T15:04:51;2.40;;;1.30;;
40256;SDS011;25977;45.462;9.210;2023-04-03T15:07:17;1.48;;;1.10;;
40256;SDS011;25977;45.462;9.210;2023-04-03T15:09:43;2.55;;;1.40;;
40256;SDS011;25977;45.462;9.210;2023-04-03T15:12:10;2.17;;;1.02;;
40256;SDS011;25977;45.462;9.210;2023-04-03T15:14:36;1.30;;;1.20;;
40256;SDS011;25977;45.462;9.210;2023-04-03T15:17:03;4.30;;;1.80;;
40256;SDS011;25977;45.462;9.210;2023-04-03T15:19:31;1.40;;;1.20;;
40256;SDS011;25977;45.462;9.210;2023-04-03T15:22:03;3.00;;;1.58;;
40256;SDS011;25977;45.462;9.210;2023-04-03T15:24:29;3.47;;;1.60;;
40256;SDS011;25977;45.462;9.210;2023-04-03T15:26:55;2.42;;;1.60;;
40256;SDS011;25977;45.462;9.210;2023-04-03T15:29:21;1.52;;;1.42;;
40256;SDS011;25977;45.462;9.210;2023-04-03T15:31:47;4.50;;;2.10;;
40256;SDS011;25977;45.462;9.210;2023-04-03T15:34:14;3.60;;;1.70;;
40256;SDS011;25977;45.462;9.210;2023-04-03T15:36:41;5.88;;;1.58;;
40256;SDS011;25977;45.462;9.210;2023-04-03T15:39:07;3.92;;;1.98;;
40256;SDS011;25977;45.462;9.210;2023-04-03T15:41:32;3.35;;;1.50;;
40256;SDS011;25977;45.462;9.210;2023-04-03T15:43:58;6.80;;;2.25;;
40256;SDS011;25977;45.462;9.210;2023-04-03T15:46:25;4.05;;;1.42;;
40256;SDS011;25977;45.462;9.210;2023-04-03T15:48:51;18.73;;;2.25;;
40256;SDS011;25977;45.462;9.210;2023-04-03T15:51:17;4.18;;;2.47;;
40256;SDS011;25977;45.462;9.210;2023-04-03T15:53:43;2.15;;;1.98;;
40256;SDS011;25977;45.462;9.210;2023-04-03T15:56:09;7.25;;;2.00;;
40256;SDS011;25977;45.462;9.210;2023-04-03T15:58:34;2.83;;;1.73;;
40256;SDS011;25977;45.462;9.210;2023-04-03T16:01:00;5.95;;;1.92;;
40256;SDS011;25977;45.462;9.210;2023-04-03T16:03:26;2.25;;;1.63;;
40256;SDS011;25977;45.462;9.210;2023-04-03T16:05:52;2.15;;;1.55;;
40256;SDS011;25977;45.462;9.210;2023-04-03T16:08:18;4.43;;;1.75;;
40256;SDS011;25977;45.462;9.210;2023-04-03T16:10:44;5.75;;;1.77;;
40256;SDS011;25977;45.462;9.210;2023-04-03T16:13:12;6.75;;;1.42;;
40256;SDS011;25977;45.462;9.210;2023-04-03T16:15:38;1.75;;;1.50;;
40256;SDS011;25977;45.462;9.210;2023-04-03T16:18:04;3.67;;;1.63;;
40256;SDS011;25977;45.462;9.210;2023-04-03T16:20:31;2.30;;;2.20;;
40256;SDS011;25977;45.462;9.210;2023-04-03T16:22:57;4.65;;;1.60;;
40256;SDS011;25977;45.462;9.210;2023-04-03T16:25:30;4.30;;;2.17;;
40256;SDS011;25977;45.462;9.210;2023-04-03T16:27:56;4.45;;;1.45;;
40256;SDS011;25977;45.462;9.210;2023-04-03T16:30:22;8.52;;;1.50;;
40256;SDS011;25977;45.462;9.210;2023-04-03T16:32:48;7.18;;;1.67;;